Time;durP1;ratioP1;P1;durP2;ratioP2;P2;SDS_P1;SDS_P2;PMS_P1;PMS_P2;Temp;Humidity;BMP_temperature;BMP_pressure;BME280_temperature;BME280_humidity;BME280_pressure;Samples;Min_cycle;Max_cycle;Signal;HPM_P1;HPM_P2
2024/01/09 00:02:12;;;;;;;45.42;26.17;;;;;;;-2.71;90.01;99852.53;4895172;29;20466;-86
2024/01/09 00:04:58;;;;;;;52.60;28.63;;;;;;;-2.74;89.57;99856.19;4881745;29;20056;-85
2024/01/09 00:07:47;;;;;;;42.95;25.27;;;;;;;-2.75;89.37;99862.38;4888104;29;20047;-87
2024/01/09 00:10:33;;;;;;;38.50;23.17;;;;;;;-2.70;89.83;99859.38;4887292;29;20040;-84
2024/01/09 00:13:23;;;;;;;40.45;23.80;;;;;;;-2.69;89.94;99872.25;4881688;29;20036;-84
2024/01/09 00:16:10;;;;;;;35.83;22.00;;;;;;;-2.77;90.10;99863.44;4874752;29;20450;-84
2024/01/09 00:18:56;;;;;;;38.72;22.77;;;;;;;-2.73;90.17;99868.25;4882161;29;20398;-84
2024/01/09 00:21:49;;;;;;;35.13;19.75;;;;;;;-2.71;90.29;99870.72;4882672;29;20477;-86
2024/01/09 00:24:35;;;;;;;42.38;24.48;;;;;;;-2.62;90.01;99880.38;4870763;29;20161;-83
2024/01/09 00:27:21;;;;;;;43.35;24.50;;;;;;;-2.63;90.43;99881.34;4881294;29;20371;-84
2024/01/09 00:30:14;;;;;;;41.35;24.83;;;;;;;-2.59;89.82;99882.72;4885992;29;20381;-85
2024/01/09 00:33:00;;;;;;;44.35;24.88;;;;;;;-2.54;89.47;99896.16;4887809;29;20381;-88
2024/01/09 00:35:46;;;;;;;41.42;22.88;;;;;;;-2.56;89.26;99888.47;4897301;29;20059;-82
2024/01/09 00:38:38;;;;;;;42.30;25.08;;;;;;;-2.60;89.45;99894.06;4897459;29;20610;-86
2024/01/09 00:41:24;;;;;;;43.10;25.63;;;;;;;-2.59;90.21;99896.53;4920497;29;20042;-84
2024/01/09 00:44:10;;;;;;;42.65;25.25;;;;;;;-2.57;89.78;99899.00;4906438;29;20036;-83
2024/01/09 00:46:57;;;;;;;41.92;24.25;;;;;;;-2.58;90.65;99897.38;4896540;29;20036;-84
2024/01/09 00:49:47;;;;;;;42.30;24.52;;;;;;;-2.52;90.09;99899.44;4899488;29;20043;-84
2024/01/09 00:52:33;;;;;;;49.03;26.42;;;;;;;-2.57;90.28;99904.22;4883141;29;20397;-85
2024/01/09 00:55:19;;;;;;;49.33;26.95;;;;;;;-2.52;90.36;99911.66;4896046;29;20046;-85
2024/01/09 00:58:05;;;;;;;45.65;25.50;;;;;;;-2.56;89.69;99911.91;4895276;29;20054;-84
2024/01/09 01:00:52;;;;;;;47.00;24.98;;;;;;;-2.61;90.05;99908.84;4895007;29;20397;-85
2024/01/09 01:03:40;;;;;;;38.95;22.83;;;;;;;-2.59;89.64;99916.53;4894558;29;20047;-85
2024/01/09 01:06:26;;;;;;;37.30;22.13;;;;;;;-2.69;90.03;99919.09;4894620;29;20406;-86
2024/01/09 01:09:13;;;;;;;37.00;20.75;;;;;;;-2.71;90.00;99920.16;4893183;29;20397;-84
2024/01/09 01:12:01;;;;;;;38.78;22.95;;;;;;;-2.78;90.33;99922.47;4892318;29;20040;-85
2024/01/09 01:14:49;;;;;;;41.08;24.35;;;;;;;-2.82;90.38;99928.84;4893329;29;20385;-84
2024/01/09 01:17:38;;;;;;;41.85;23.38;;;;;;;-2.85;89.78;99932.53;4893316;29;20066;-84
2024/01/09 01:20:31;;;;;;;48.22;25.48;;;;;;;-2.81;89.86;99926.13;4891678;29;20381;-84
2024/01/09 01:23:33;;;;;;;51.28;26.23;;;;;;;-2.83;90.26;99927.19;4891953;29;20476;-86
2024/01/09 01:26:41;;;;;;;51.92;26.65;;;;;;;-2.85;90.86;99927.34;4899517;29;20043;-86
2024/01/09 01:29:36;;;;;;;50.30;26.83;;;;;;;-2.80;90.64;99938.19;4894042;29;20447;-86
2024/01/09 01:32:23;;;;;;;50.42;27.33;;;;;;;-2.82;90.58;99934.91;4892548;29;20043;-84
2024/01/09 01:35:13;;;;;;;54.03;27.95;;;;;;;-2.80;90.16;99940.78;4893461;29;20047;-86
2024/01/09 01:38:06;;;;;;;51.28;27.67;;;;;;;-2.77;90.70;99936.28;4880146;29;20442;-86
2024/01/09 01:40:52;;;;;;;53.50;29.00;;;;;;;-2.76;90.18;99943.13;4878360;29;20385;-86
2024/01/09 01:43:38;;;;;;;59.00;28.92;;;;;;;-2.73;90.19;99945.47;4904207;29;20042;-86
2024/01/09 01:46:26;;;;;;;51.80;27.23;;;;;;;-2.73;89.64;99951.50;4903578;29;20393;-85
2024/01/09 01:49:13;;;;;;;44.17;24.75;;;;;;;-2.69;89.70;99946.91;4890436;29;20060;-85
2024/01/09 01:52:00;;;;;;;54.17;26.88;;;;;;;-2.68;89.54;99954.56;4904155;29;20381;-85
2024/01/09 01:54:47;;;;;;;52.28;26.10;;;;;;;-2.72;89.96;99955.78;4892578;29;20044;-85
2024/01/09 01:57:34;;;;;;;47.83;25.60;;;;;;;-2.72;90.03;99957.56;4892056;29;20102;-86
2024/01/09 02:00:21;;;;;;;53.03;28.15;;;;;;;-2.75;90.18;99957.81;4887063;29;20043;-86
2024/01/09 02:03:11;;;;;;;48.72;25.45;;;;;;;-2.75;89.95;99953.41;4895638;29;20446;-88
2024/01/09 02:05:57;;;;;;;44.92;24.67;;;;;;;-2.73;89.06;99956.69;4892915;29;20044;-87
2024/01/09 02:08:47;;;;;;;45.95;24.10;;;;;;;-2.74;89.42;99959.44;4891540;29;20059;-83
2024/01/09 02:11:36;;;;;;;45.15;24.80;;;;;;;-2.74;89.78;99959.44;4891141;29;20036;-85
2024/01/09 02:14:23;;;;;;;41.72;22.95;;;;;;;-2.72;89.76;99958.38;4889997;29;20382;-84
2024/01/09 02:17:09;;;;;;;40.40;22.63;;;;;;;-2.69;88.38;99957.31;4905885;29;20044;-86
2024/01/09 02:20:02;;;;;;;37.25;21.08;;;;;;;-2.77;89.11;99954.50;4888955;29;20040;-85
2024/01/09 02:22:50;;;;;;;40.08;22.10;;;;;;;-2.75;89.09;99963.84;4876748;29;20401;-84
2024/01/09 02:25:37;;;;;;;43.17;24.73;;;;;;;-2.72;88.83;99957.56;4889727;29;20048;-86
2024/01/09 02:28:27;;;;;;;41.78;23.27;;;;;;;-2.69;88.62;99955.53;4892791;29;20032;-85
2024/01/09 02:31:14;;;;;;;45.20;24.42;;;;;;;-2.69;89.24;99960.72;4888458;29;20478;-88
2024/01/09 02:34:01;;;;;;;38.28;21.90;;;;;;;-2.63;89.14;99964.59;4894130;29;20360;-87
2024/01/09 02:36:47;;;;;;;38.40;20.77;;;;;;;-2.62;89.73;99964.47;4907534;29;20389;-85
2024/01/09 02:39:33;;;;;;;37.83;21.77;;;;;;;-2.64;89.40;99963.75;4900647;29;20390;-86
2024/01/09 02:42:20;;;;;;;38.85;21.38;;;;;;;-2.60;89.20;99966.94;4894941;29;20071;-86
2024/01/09 02:45:10;;;;;;;40.97;23.23;;;;;;;-2.64;88.45;99971.56;4896837;29;20051;-85
2024/01/09 02:47:56;;;;;;;38.63;22.08;;;;;;;-2.64;89.28;99970.75;4889514;29;20421;-86
2024/01/09 02:50:43;;;;;;;36.92;21.08;;;;;;;-2.61;89.21;99970.50;4876921;29;20043;-86
2024/01/09 02:53:29;;;;;;;37.97;22.38;;;;;;;-2.66;88.65;99973.47;4889507;29;20384;-86
2024/01/09 02:56:16;;;;;;;38.40;21.48;;;;;;;-2.63;88.77;99972.41;4889811;29;20415;-84
2024/01/09 02:59:03;;;;;;;38.50;20.95;;;;;;;-2.64;88.51;99976.75;4902584;29;20036;-84
2024/01/09 03:01:49;;;;;;;36.85;21.20;;;;;;;-2.60;88.45;99980.78;4890278;29;20386;-86
2024/01/09 03:04:35;;;;;;;33.88;21.52;;;;;;;-2.63;88.35;99977.63;4890020;29;20066;-86
2024/01/09 03:07:22;;;;;;;40.38;21.30;;;;;;;-2.58;88.58;99985.84;4889746;29;20035;-85
2024/01/09 03:10:09;;;;;;;39.47;21.95;;;;;;;-2.58;89.07;99985.84;4903072;29;20397;-85
2024/01/09 03:12:55;;;;;;;40.42;22.73;;;;;;;-2.60;89.53;99990.34;4890128;29;20465;-85
2024/01/09 03:15:41;;;;;;;40.25;22.27;;;;;;;-2.64;88.49;99986.34;4892296;29;20052;-86
2024/01/09 03:18:28;;;;;;;41.33;23.55;;;;;;;-2.63;88.50;99998.44;4890004;29;20036;-84
2024/01/09 03:21:16;;;;;;;41.70;23.42;;;;;;;-2.64;89.70;99996.75;4891618;29;20409;-84
2024/01/09 03:24:03;;;;;;;41.80;23.02;;;;;;;-2.68;89.68;99996.19;4891919;29;20052;-84
2024/01/09 03:26:49;;;;;;;41.30;23.80;;;;;;;-2.67;89.16;100004.81;4903188;29;20040;-86
2024/01/09 03:29:36;;;;;;;42.25;23.88;;;;;;;-2.73;89.40;100010.53;4889222;29;20043;-86
2024/01/09 03:32:22;;;;;;;39.45;21.98;;;;;;;-2.83;88.83;100005.25;4890488;29;20031;-84
2024/01/09 03:35:09;;;;;;;45.90;23.38;;;;;;;-2.81;89.93;100011.97;4891835;29;20044;-85
2024/01/09 03:38:01;;;;;;;38.58;21.85;;;;;;;-2.77;88.93;100016.94;4891518;29;20052;-85
2024/01/09 03:40:51;;;;;;;36.45;20.48;;;;;;;-2.78;89.50;100013.50;4890665;29;20060;-87
2024/01/09 03:43:41;;;;;;;42.60;23.65;;;;;;;-2.77;90.11;100017.75;4878882;29;20381;-85
2024/01/09 03:46:31;;;;;;;47.67;27.70;;;;;;;-2.76;89.07;100036.78;4895412;29;20040;-84
2024/01/09 03:49:17;;;;;;;38.78;23.40;;;;;;;-2.72;90.20;100040.81;4880835;29;20706;-85
2024/01/09 03:52:05;;;;;;;37.97;21.88;;;;;;;-2.84;89.36;100030.44;4895454;29;20354;-86
2024/01/09 03:54:51;;;;;;;34.53;20.63;;;;;;;-2.80;90.03;100038.81;4893449;29;20450;-84
2024/01/09 03:57:38;;;;;;;40.25;21.75;;;;;;;-2.80;90.17;100041.41;4892915;29;20614;-84
2024/01/09 04:00:26;;;;;;;35.80;21.10;;;;;;;-2.81;89.75;100050.19;4894556;29;20048;-85
2024/01/09 04:03:15;;;;;;;34.42;20.65;;;;;;;-2.76;89.04;100047.19;4891376;29;20378;-86
2024/01/09 04:06:03;;;;;;;34.10;20.42;;;;;;;-2.77;89.42;100054.19;4886784;29;20048;-86
2024/01/09 04:08:49;;;;;;;35.15;20.98;;;;;;;-2.76;90.23;100052.41;4901117;29;20040;-84
2024/01/09 04:11:42;;;;;;;38.75;22.00;;;;;;;-2.73;90.04;100055.56;4889630;29;20047;-86
2024/01/09 04:14:29;;;;;;;39.63;21.40;;;;;;;-2.76;89.89;100057.59;4891504;29;20039;-86
2024/01/09 04:17:15;;;;;;;36.88;21.20;;;;;;;-2.86;89.91;100060.94;4889348;29;20040;-83
2024/01/09 04:20:04;;;;;;;38.58;21.45;;;;;;;-2.90;89.75;100066.53;4887942;29;20048;-83
2024/01/09 04:22:50;;;;;;;37.78;22.30;;;;;;;-2.91;89.33;100068.31;4889779;29;20036;-83
2024/01/09 04:25:36;;;;;;;36.45;21.60;;;;;;;-2.92;90.41;100074.44;4884624;29;20059;-85
2024/01/09 04:28:23;;;;;;;38.20;22.88;;;;;;;-2.95;89.32;100076.47;4890686;29;20035;-82
2024/01/09 04:31:09;;;;;;;37.63;21.98;;;;;;;-2.92;90.36;100081.41;4894906;29;20052;-82
2024/01/09 04:33:56;;;;;;;35.38;21.85;;;;;;;-3.01;90.14;100082.97;4896107;29;20477;-85
2024/01/09 04:36:44;;;;;;;37.42;22.23;;;;;;;-2.99;90.33;100083.69;4885698;29;20043;-86
2024/01/09 04:39:30;;;;;;;35.80;21.42;;;;;;;-3.03;90.18;100090.09;4891536;29;20377;-86
2024/01/09 04:42:16;;;;;;;38.33;22.23;;;;;;;-3.04;89.54;100093.63;4890491;29;20044;-87
2024/01/09 04:45:03;;;;;;;38.83;22.80;;;;;;;-3.08;90.23;100094.81;4889467;29;20035;-84
2024/01/09 04:47:50;;;;;;;38.10;21.55;;;;;;;-3.11;89.55;100101.06;4879509;29;20469;-84
2024/01/09 04:50:36;;;;;;;33.25;21.05;;;;;;;-3.16;89.46;100102.41;4893114;29;20377;-83
2024/01/09 04:53:23;;;;;;;35.33;20.10;;;;;;;-3.16;89.81;100107.59;4892048;29;20052;-84
2024/01/09 04:56:09;;;;;;;34.63;21.05;;;;;;;-3.19;90.19;100097.44;4891501;29;20498;-84
2024/01/09 04:58:55;;;;;;;36.92;21.45;;;;;;;-3.20;89.75;100104.38;4892003;29;20051;-85
2024/01/09 05:01:43;;;;;;;34.42;21.83;;;;;;;-3.14;89.97;100105.69;4872947;29;20039;-85
2024/01/09 05:04:29;;;;;;;39.05;22.23;;;;;;;-3.14;90.63;100108.28;4892331;29;20043;-84
2024/01/09 05:07:16;;;;;;;34.67;20.83;;;;;;;-3.11;90.62;100114.06;4891082;29;20405;-85
2024/01/09 05:10:03;;;;;;;34.38;20.92;;;;;;;-3.13;90.61;100107.38;4890759;29;20039;-85
2024/01/09 05:12:49;;;;;;;34.58;20.58;;;;;;;-3.11;89.92;100111.47;4890551;29;20445;-85
2024/01/09 05:15:36;;;;;;;39.25;22.20;;;;;;;-3.09;90.10;100112.19;4891133;29;20393;-88
2024/01/09 05:18:22;;;;;;;42.30;25.52;;;;;;;-3.12;90.22;100117.63;4891446;29;20036;-86
2024/01/09 05:21:09;;;;;;;55.25;29.88;;;;;;;-3.09;90.76;100116.56;4892536;29;20043;-85
2024/01/09 05:23:55;;;;;;;89.63;45.55;;;;;;;-3.10;89.82;100115.75;4892169;29;20039;-84
2024/01/09 05:26:42;;;;;;;59.35;34.10;;;;;;;-3.11;90.41;100124.47;4892572;29;20044;-85
2024/01/09 05:29:29;;;;;;;55.45;31.00;;;;;;;-3.09;90.25;100124.38;4891767;29;20036;-84
2024/01/09 05:32:15;;;;;;;46.72;26.90;;;;;;;-3.13;89.49;100125.56;4882362;29;20043;-86
2024/01/09 05:35:02;;;;;;;40.03;23.33;;;;;;;-3.13;89.76;100125.56;4910317;29;20462;-85
2024/01/09 05:37:48;;;;;;;43.30;24.50;;;;;;;-3.18;89.61;100132.88;4891311;29;20385;-87
2024/01/09 05:40:35;;;;;;;46.60;24.83;;;;;;;-3.18;90.42;100132.88;4891061;29;20047;-85
2024/01/09 05:43:21;;;;;;;46.42;24.63;;;;;;;-3.18;90.20;100136.31;4891141;29;20043;-86
2024/01/09 05:46:07;;;;;;;43.05;26.65;;;;;;;-3.19;90.31;100139.88;4891023;29;20445;-84
2024/01/09 05:48:55;;;;;;;55.63;32.28;;;;;;;-3.19;90.21;100139.88;4905372;29;20446;-84
2024/01/09 05:51:41;;;;;;;48.95;27.85;;;;;;;-3.26;89.53;100141.25;4884234;29;20479;-85
2024/01/09 05:54:28;;;;;;;47.47;28.63;;;;;;;-3.21;89.28;100143.53;4890516;29;20055;-83
2024/01/09 05:57:14;;;;;;;47.17;28.27;;;;;;;-3.21;88.96;100154.75;4891626;29;20389;-85
2024/01/09 06:00:00;;;;;;;45.42;26.42;;;;;;;-3.20;89.28;100152.97;4892243;29;20051;-83
2024/01/09 06:02:45;;;;;;;54.15;29.10;;;;;;;-3.20;89.41;100164.19;4890802;29;20450;-85
2024/01/09 06:05:30;;;;;;;53.47;28.90;;;;;;;-3.15;89.14;100161.25;4891253;29;20056;-83
2024/01/09 06:08:17;;;;;;;38.25;23.13;;;;;;;-3.12;89.39;100168.81;4889632;29;20397;-83
2024/01/09 06:11:04;;;;;;;45.35;24.80;;;;;;;-3.09;89.17;100173.78;4884644;29;20446;-84
2024/01/09 06:13:49;;;;;;;51.47;29.67;;;;;;;-3.07;88.10;100177.94;4889062;29;20381;-84
2024/01/09 06:16:35;;;;;;;47.58;25.95;;;;;;;-3.11;87.66;100180.88;4903990;29;20535;-83
2024/01/09 06:19:22;;;;;;;51.08;28.38;;;;;;;-3.02;88.70;100191.38;4888942;29;20454;-85
2024/01/09 06:22:08;;;;;;;45.20;26.40;;;;;;;-2.99;87.94;100192.91;4889846;29;20377;-84
2024/01/09 06:24:53;;;;;;;53.38;29.48;;;;;;;-2.97;88.15;100190.22;4888234;29;20036;-87
2024/01/09 06:27:42;;;;;;;44.70;27.15;;;;;;;-2.94;88.41;100203.00;4905991;29;20040;-84
2024/01/09 06:30:34;;;;;;;57.22;28.75;;;;;;;-2.93;87.83;100197.66;4901205;29;20044;-83
2024/01/09 06:33:20;;;;;;;57.17;29.92;;;;;;;-2.87;87.62;100201.56;4900871;29;20454;-84
2024/01/09 06:36:12;;;;;;;50.10;28.60;;;;;;;-2.92;87.40;100201.91;4893476;29;20417;-86
2024/01/09 06:39:01;;;;;;;65.03;33.75;;;;;;;-2.88;88.05;100203.34;4894249;29;20059;-85
2024/01/09 06:41:51;;;;;;;88.60;37.03;;;;;;;-2.88;87.31;100199.91;4888880;29;20040;-84
2024/01/09 06:44:37;;;;;;;64.68;32.88;;;;;;;-2.80;87.59;100211.34;4889422;29;20039;-84
2024/01/09 06:47:22;;;;;;;44.75;25.48;;;;;;;-2.89;87.06;100206.03;4888248;29;20039;-85
2024/01/09 06:50:10;;;;;;;51.67;27.45;;;;;;;-2.87;87.00;100214.56;4876955;29;20462;-87
2024/01/09 06:52:59;;;;;;;44.55;26.60;;;;;;;-2.84;86.30;100228.16;4889485;29;20389;-86
2024/01/09 06:59:32;;;;;;;59.25;29.90;;;;;;;-2.86;86.09;100222.22;4916825;29;20454;-86
2024/01/09 07:02:20;;;;;;;70.65;37.50;;;;;;;-2.77;86.33;100232.88;4889833;29;20043;-83
2024/01/09 07:05:06;;;;;;;61.90;32.60;;;;;;;-2.68;85.70;100239.97;4900193;29;20043;-86
2024/01/09 07:07:52;;;;;;;61.58;32.00;;;;;;;-2.61;84.97;100251.56;4887654;29;20399;-85
2024/01/09 07:10:38;;;;;;;56.63;29.27;;;;;;;-2.56;85.29;100252.84;4902175;29;20040;-82
2024/01/09 07:13:26;;;;;;;59.20;30.88;;;;;;;-2.44;85.07;100251.06;4886892;29;20036;-86
2024/01/09 07:16:12;;;;;;;47.97;25.10;;;;;;;-2.43;84.19;100247.50;4895204;29;20044;-85
2024/01/09 07:18:59;;;;;;;57.85;31.17;;;;;;;-2.53;83.49;100258.78;4905612;29;20446;-87
2024/01/09 07:21:45;;;;;;;50.03;27.25;;;;;;;-2.47;83.88;100264.31;4900915;29;20040;-86
2024/01/09 07:24:32;;;;;;;46.42;26.67;;;;;;;-2.44;83.55;100258.88;4900934;29;20036;-84
2024/01/09 07:27:20;;;;;;;38.50;22.98;;;;;;;-2.41;82.41;100263.84;4885427;29;20362;-85
2024/01/09 07:30:11;;;;;;;40.67;23.77;;;;;;;-2.25;83.42;100276.47;4901559;29;20044;-85
2024/01/09 07:33:33;;;;;;;41.42;22.75;;;;;;;-2.30;81.47;100283.00;4903590;29;20048;-86
2024/01/09 07:36:34;;;;;;;96.38;48.38;;;;;;;-2.20;82.29;100287.34;4880405;29;20381;-85
2024/01/09 07:39:26;;;;;;;75.35;34.95;;;;;;;-1.99;82.58;100295.22;4898145;29;20039;-85
2024/01/09 07:42:16;;;;;;;49.70;28.95;;;;;;;-1.99;81.45;100297.84;4901696;29;21775;-86
2024/01/09 07:45:11;;;;;;;33.75;19.05;;;;;;;-2.36;80.92;100307.72;4896880;29;20039;-83
2024/01/09 07:47:59;;;;;;;65.90;37.15;;;;;;;-2.31;81.76;100310.81;4873219;29;20393;-85
2024/01/09 07:50:47;;;;;;;61.08;33.38;;;;;;;-2.30;81.67;100309.84;4896242;29;20381;-88
2024/01/09 07:54:04;;;;;;;49.20;28.15;;;;;;;-2.23;80.94;100331.03;4870028;29;20052;-88
2024/01/09 07:56:56;;;;;;;42.22;24.80;;;;;;;-2.16;81.87;100345.25;4856739;29;20389;-82
2024/01/09 08:00:49;;;;;;;43.17;22.42;;;;;;;-1.92;82.12;100353.72;4870815;29;20470;-89
2024/01/09 08:04:08;;;;;;;35.75;22.40;;;;;;;-1.87;80.71;100345.53;4875714;29;20041;-85
2024/01/09 08:06:59;;;;;;;44.03;23.77;;;;;;;-1.93;81.12;100353.84;4871701;29;20045;-89
2024/01/09 08:09:45;;;;;;;31.10;18.40;;;;;;;-2.03;80.32;100358.13;4864143;29;20044;-83
2024/01/09 08:12:31;;;;;;;38.33;18.85;;;;;;;-2.09;79.84;100362.03;4864393;29;20455;-87
2024/01/09 08:15:17;;;;;;;98.43;37.03;;;;;;;-2.17;80.33;100374.81;4882704;29;20387;-87
2024/01/09 08:18:05;;;;;;;82.22;33.03;;;;;;;-2.27;80.61;100379.09;4871047;29;20474;-84
2024/01/09 08:20:54;;;;;;;36.80;21.70;;;;;;;-2.24;81.00;100382.28;4885754;29;20481;-84
2024/01/09 08:23:40;;;;;;;36.28;18.33;;;;;;;-2.25;80.77;100387.63;4890332;29;20389;-83
2024/01/09 08:26:25;;;;;;;31.95;17.75;;;;;;;-2.16;80.97;100385.13;4884929;29;20048;-85
2024/01/09 08:29:11;;;;;;;33.10;19.38;;;;;;;-2.12;80.66;100409.16;4904096;29;20047;-84
2024/01/09 08:31:57;;;;;;;29.33;17.08;;;;;;;-2.23;80.82;100401.34;4883281;29;20052;-86
2024/01/09 08:34:42;;;;;;;35.58;19.45;;;;;;;-2.21;80.29;100409.88;4884765;29;20040;-83
2024/01/09 08:37:28;;;;;;;44.33;22.65;;;;;;;-2.11;81.14;100403.00;4884727;29;20397;-84
2024/01/09 08:40:14;;;;;;;45.80;23.42;;;;;;;-1.86;81.44;100405.34;4862289;29;20040;-83
2024/01/09 08:43:02;;;;;;;51.28;26.83;;;;;;;-1.75;80.27;100408.91;4862962;29;20048;-85
2024/01/09 08:46:23;;;;;;;53.28;26.33;;;;;;;-1.41;79.72;100409.59;4850480;29;20044;-85
2024/01/09 08:49:11;;;;;;;39.10;21.27;;;;;;;-1.82;79.48;100392.88;4861179;29;20443;-84
2024/01/09 08:51:59;;;;;;;31.30;17.05;;;;;;;-1.90;80.43;100408.31;4860919;29;20048;-85
2024/01/09 08:54:57;;;;;;;36.17;20.83;;;;;;;-1.70;79.25;100404.13;4863485;29;20451;-85
2024/01/09 08:57:49;;;;;;;40.88;22.92;;;;;;;-1.82;79.80;100408.53;4862177;29;20052;-84
2024/01/09 09:00:42;;;;;;;38.90;20.13;;;;;;;-1.94;79.88;100418.16;4894815;29;20044;-85
2024/01/09 09:03:37;;;;;;;69.53;31.73;;;;;;;-1.65;80.01;100428.88;4885301;29;20052;-86
2024/01/09 09:06:31;;;;;;;41.22;22.27;;;;;;;-1.57;79.78;100435.25;4889256;29;20407;-86
2024/01/09 09:09:17;;;;;;;40.17;22.65;;;;;;;-1.56;78.72;100440.38;4891392;29;20224;-85
2024/01/09 09:12:05;;;;;;;39.17;21.77;;;;;;;-1.64;78.95;100434.91;4895224;29;20453;-85
2024/01/09 09:14:55;;;;;;;50.35;25.15;;;;;;;-1.68;79.85;100441.34;4898101;29;20450;-86
2024/01/09 09:17:44;;;;;;;37.50;20.70;;;;;;;-1.67;79.84;100436.00;4899420;29;20442;-85
2024/01/09 09:20:33;;;;;;;38.92;21.80;;;;;;;-1.40;78.77;100453.00;4911473;29;20044;-86
2024/01/09 09:23:19;;;;;;;40.22;22.45;;;;;;;-1.69;80.04;100448.34;4898234;29;20052;-85
2024/01/09 09:26:38;;;;;;;;;;;;;;;;;;;;;
2024/01/09 09:29:55;;;;;;;49.03;24.10;;;;;;;-2.08;80.04;100441.84;4900462;29;20040;-87
2024/01/09 09:32:49;;;;;;;51.97;26.25;;;;;;;-2.18;80.39;100459.94;4883500;29;20044;-83
2024/01/09 09:36:15;;;;;;;50.75;26.88;;;;;;;-2.01;80.63;100453.44;4859629;29;20040;-89
2024/01/09 09:39:07;;;;;;;47.10;24.15;;;;;;;-2.06;80.73;100452.97;4891127;29;20032;-83
2024/01/09 09:41:57;;;;;;;56.85;28.42;;;;;;;-2.00;81.19;100460.31;4852001;29;20041;-87
2024/01/09 09:44:44;;;;;;;53.67;28.17;;;;;;;-1.74;81.49;100462.66;4849237;29;20455;-84
2024/01/09 09:47:30;;;;;;;51.80;27.88;;;;;;;-1.60;80.13;100458.97;4860222;29;20048;-85
2024/01/09 09:50:16;;;;;;;45.38;25.67;;;;;;;-1.42;79.41;100458.34;4858531;29;20390;-86
2024/01/09 09:53:28;;;;;;;44.20;23.77;;;;;;;-1.42;78.90;100450.50;4870627;29;20459;-87
2024/01/09 09:56:34;;;;;;;64.80;28.92;;;;;;;-1.48;79.61;100448.38;4861545;29;20040;-86
2024/01/09 09:59:19;;;;;;;29.98;16.58;;;;;;;-1.76;78.94;100443.72;4859575;29;20394;-84
2024/01/09 10:02:06;;;;;;;34.28;17.48;;;;;;;-1.84;79.41;100451.31;4858921;29;20044;-85
2024/01/09 10:04:52;;;;;;;36.83;19.52;;;;;;;-1.91;79.15;100451.78;4873120;29;20439;-84
2024/01/09 10:07:39;;;;;;;28.02;16.33;;;;;;;-1.88;79.57;100451.56;4858863;29;20049;-85
2024/01/09 10:10:25;;;;;;;37.85;20.73;;;;;;;-1.75;78.61;100453.19;4853817;29;20048;-85
2024/01/09 10:13:12;;;;;;;48.08;25.63;;;;;;;-1.71;79.17;100459.81;4866265;29;20048;-84
2024/01/09 10:15:58;;;;;;;46.22;24.13;;;;;;;-1.79;79.75;100464.78;4871592;29;20433;-84
2024/01/09 10:18:45;;;;;;;38.45;20.30;;;;;;;-1.70;78.09;100461.47;4872675;29;20060;-85
2024/01/09 10:21:30;;;;;;;46.05;24.45;;;;;;;-1.63;78.11;100468.72;4882247;29;20355;-84
2024/01/09 10:24:16;;;;;;;57.28;30.20;;;;;;;-1.70;78.07;100474.50;4863964;29;20056;-84
2024/01/09 10:27:02;;;;;;;57.85;26.75;;;;;;;-1.81;77.64;100474.53;4876086;29;20467;-84
2024/01/09 10:29:48;;;;;;;57.78;27.23;;;;;;;-1.81;78.47;100474.53;4862132;29;20052;-83
2024/01/09 10:32:35;;;;;;;58.67;28.10;;;;;;;-1.83;78.10;100472.03;4862144;29;20044;-85
2024/01/09 10:35:20;;;;;;;56.53;27.35;;;;;;;-1.78;77.77;100474.28;4849326;29;20048;-84
2024/01/09 10:38:11;;;;;;;57.25;29.17;;;;;;;-1.83;78.31;100476.41;4872818;29;20044;-86
2024/01/09 10:40:57;;;;;;;42.33;22.85;;;;;;;-1.96;78.61;100482.56;4865332;29;20386;-83
2024/01/09 10:43:43;;;;;;;43.22;20.52;;;;;;;-2.01;79.08;100489.06;4858363;29;20390;-84
2024/01/09 10:46:31;;;;;;;55.15;26.83;;;;;;;-1.94;78.50;100485.91;4858051;29;20052;-84
2024/01/09 10:49:19;;;;;;;54.22;28.05;;;;;;;-1.81;79.12;100484.94;4871915;29;20049;-84
2024/01/09 10:52:04;;;;;;;63.97;28.90;;;;;;;-1.47;78.45;100485.75;4865551;29;20052;-84
2024/01/09 10:54:49;;;;;;;52.08;24.70;;;;;;;-1.74;79.23;100479.13;4845704;29;20396;-84
2024/01/09 10:57:36;;;;;;;54.83;26.33;;;;;;;-1.76;78.76;100475.81;4871052;29;20041;-86
2024/01/09 11:00:21;;;;;;;48.08;24.20;;;;;;;-1.48;77.54;100473.63;4872974;29;20048;-84
2024/01/09 11:03:07;;;;;;;42.17;21.27;;;;;;;-1.61;76.98;100463.34;4863318;29;20447;-86
2024/01/09 11:05:54;;;;;;;37.95;19.38;;;;;;;-1.75;77.89;100464.44;4871665;29;20048;-85
2024/01/09 11:08:39;;;;;;;44.72;21.10;;;;;;;-1.79;78.38;100467.41;4864372;29;20041;-84
2024/01/09 11:11:25;;;;;;;44.35;22.00;;;;;;;-1.83;78.60;100464.22;4864537;29;20044;-85
2024/01/09 11:14:11;;;;;;;54.25;26.00;;;;;;;-1.78;78.68;100472.50;4870903;29;20048;-83
2024/01/09 11:16:57;;;;;;;49.03;24.92;;;;;;;-1.79;78.68;100472.63;4852626;29;20382;-84
2024/01/09 11:19:43;;;;;;;40.63;22.33;;;;;;;-1.59;78.52;100474.50;4857963;29;20052;-84
2024/01/09 11:22:35;;;;;;;30.85;15.68;;;;;;;-1.70;77.36;100469.28;4884376;29;20048;-84
2024/01/09 11:25:23;;;;;;;41.10;20.35;;;;;;;-1.47;77.96;100459.69;4858115;29;20044;-87
2024/01/09 11:28:38;;;;;;;62.13;27.02;;;;;;;-1.29;76.31;100467.78;4858381;29;20045;-86
2024/01/09 11:31:30;;;;;;;45.40;22.95;;;;;;;-1.20;76.32;100470.47;4856008;29;20052;-83
2024/01/09 11:34:26;;;;;;;34.15;18.38;;;;;;;-1.26;76.17;100467.53;4858608;29;20048;-85
2024/01/09 11:37:18;;;;;;;34.40;18.63;;;;;;;-1.54;76.10;100466.31;4858730;29;20048;-87
2024/01/09 11:40:05;;;;;;;68.15;34.00;;;;;;;-1.26;76.58;100475.38;4857318;29;20447;-85
2024/01/09 11:42:52;;;;;;;41.72;21.98;;;;;;;-1.46;76.96;100471.75;4845197;29;20390;-85
2024/01/09 11:45:37;;;;;;;43.45;23.50;;;;;;;-1.40;77.09;100479.09;4857268;29;20447;-84
2024/01/09 11:48:23;;;;;;;31.50;17.45;;;;;;;-1.48;75.65;100487.50;4864653;29;20451;-82
2024/01/09 11:51:10;;;;;;;45.55;21.15;;;;;;;-1.53;76.55;100491.44;4858099;29;20397;-85
2024/01/09 11:53:58;;;;;;;41.10;20.42;;;;;;;-1.51;76.90;100487.75;4876523;29;20036;-84
2024/01/09 11:56:44;;;;;;;43.35;23.52;;;;;;;-1.42;76.24;100492.22;4861520;29;20052;-84
2024/01/09 11:59:33;;;;;;;43.47;22.58;;;;;;;-1.27;75.82;100484.97;4871539;29;20040;-84
2024/01/09 12:02:19;;;;;;;43.33;22.20;;;;;;;-1.31;75.56;100488.78;4857754;29;20052;-85
2024/01/09 12:05:09;;;;;;;41.33;21.75;;;;;;;-1.12;75.15;100493.38;4871842;29;20048;-84
2024/01/09 12:07:57;;;;;;;36.03;20.20;;;;;;;-1.23;74.74;100493.38;4857883;29;20470;-84
2024/01/09 12:10:47;;;;;;;44.83;23.50;;;;;;;-1.40;76.27;100490.34;4871264;29;20040;-84
2024/01/09 12:13:32;;;;;;;53.95;26.23;;;;;;;-1.40;76.16;100492.94;4870749;29;20048;-84
2024/01/09 12:16:19;;;;;;;41.80;20.13;;;;;;;-1.49;76.11;100498.88;4864745;29;20040;-85
2024/01/09 12:19:04;;;;;;;47.28;21.58;;;;;;;-1.68;75.84;100502.13;4858872;29;20048;-85
2024/01/09 12:21:50;;;;;;;70.13;27.85;;;;;;;-1.64;76.47;100507.91;4858356;29;20048;-84
2024/01/09 12:24:36;;;;;;;74.65;29.92;;;;;;;-1.60;77.33;100506.72;4883275;29;20048;-85
2024/01/09 12:27:23;;;;;;;48.95;25.60;;;;;;;-1.42;76.53;100507.88;4883061;29;20052;-85
2024/01/09 12:30:11;;;;;;;39.80;20.33;;;;;;;-1.46;76.75;100501.25;4883512;29;20450;-84
2024/01/09 12:32:58;;;;;;;54.00;27.60;;;;;;;-1.03;76.14;100502.25;4864750;29;20045;-85
2024/01/09 12:35:48;;;;;;;40.50;23.48;;;;;;;-0.99;74.95;100504.47;4860018;29;20447;-84
2024/01/09 12:38:34;;;;;;;49.85;26.30;;;;;;;-1.20;74.67;100506.19;4845333;29;20048;-86
2024/01/09 12:41:23;;;;;;;41.95;21.80;;;;;;;-1.25;75.47;100503.94;4870659;29;20048;-84
2024/01/09 12:44:12;;;;;;;55.20;26.17;;;;;;;-1.24;74.06;100499.56;4871232;29;20056;-85
2024/01/09 12:46:58;;;;;;;47.83;23.33;;;;;;;-1.35;74.60;100504.78;4870788;29;20044;-84
2024/01/09 12:49:45;;;;;;;28.60;16.52;;;;;;;-1.35;74.30;100505.63;4870315;29;20147;-84
2024/01/09 12:52:31;;;;;;;33.90;18.52;;;;;;;-1.32;74.40;100501.94;4857280;29;20048;-83
2024/01/09 12:55:18;;;;;;;38.40;22.33;;;;;;;-1.42;76.02;100520.91;4857731;29;20382;-84